Time;durP1;ratioP1;P1;durP2;ratioP2;P2;SDS_P1;SDS_P2;PMS_P1;PMS_P2;Temp;Humidity;BMP_temperature;BMP_pressure;BME280_temperature;BME280_humidity;BME280_pressure;Samples;Min_cycle;Max_cycle;Signal;HPM_P1;HPM_P2
2022/03/09 00:01:35;;;;;;;20.40;14.43;;;-0.30;73.60;;;;;;5056054;28;21012;-46
2022/03/09 00:04:02;;;;;;;23.33;12.67;;;-0.20;73.30;;;;;;5048129;28;20931;-46
2022/03/09 00:06:29;;;;;;;25.60;12.93;;;-0.20;72.00;;;;;;5045897;28;20488;-47
2022/03/09 00:08:58;;;;;;;19.33;11.97;;;-0.20;71.90;;;;;;5058596;28;20480;-47
2022/03/09 00:11:24;;;;;;;20.40;12.93;;;-0.40;71.90;;;;;;5042922;28;20565;-47
2022/03/09 00:13:51;;;;;;;16.73;11.17;;;-0.50;71.90;;;;;;5047038;28;20891;-46
2022/03/09 00:16:18;;;;;;;23.90;10.50;;;-0.60;72.40;;;;;;5049277;28;20837;-46
2022/03/09 00:18:45;;;;;;;17.50;10.53;;;;;;;;;;5046487;28;20494;-47
2022/03/09 00:21:12;;;;;;;17.17;12.27;;;-0.80;73.90;;;;;;5046489;28;20491;-51
2022/03/09 00:23:38;;;;;;;17.43;12.90;;;-0.80;73.30;;;;;;5047776;28;20470;-46
2022/03/09 00:26:06;;;;;;;20.93;12.83;;;-0.70;73.00;;;;;;5044700;28;20467;-46
2022/03/09 00:28:33;;;;;;;45.97;14.67;;;-0.70;72.70;;;;;;5046836;28;20480;-46
2022/03/09 00:31:00;;;;;;;32.00;13.70;;;-0.80;72.50;;;;;;5043993;28;20477;-46
2022/03/09 00:33:27;;;;;;;20.40;12.43;;;;;;;;;;5048399;28;21012;-46
2022/03/09 00:35:54;;;;;;;20.77;12.03;;;-0.80;72.60;;;;;;5048419;28;20476;-46
2022/03/09 00:38:21;;;;;;;23.97;12.97;;;-0.80;72.90;;;;;;5045173;28;20967;-46
2022/03/09 00:40:50;;;;;;;21.33;11.97;;;;;;;;;;5043780;28;20493;-46
2022/03/09 00:43:18;;;;;;;22.03;12.00;;;-0.80;72.40;;;;;;5044375;28;20480;-46
2022/03/09 00:45:46;;;;;;;19.70;13.50;;;-0.80;72.50;;;;;;5043015;28;20476;-50
2022/03/09 00:48:13;;;;;;;19.30;12.10;;;-0.80;72.40;;;;;;5039554;28;20502;-46
2022/03/09 00:50:40;;;;;;;18.30;11.70;;;-0.80;71.80;;;;;;5038724;28;20484;-46
2022/03/09 00:53:07;;;;;;;26.20;12.77;;;-0.90;72.10;;;;;;5042694;28;20561;-46
2022/03/09 00:55:33;;;;;;;36.73;12.67;;;-0.90;72.10;;;;;;5041466;28;20485;-47
2022/03/09 00:58:00;;;;;;;21.00;12.60;;;-0.90;72.20;;;;;;5051578;28;20537;-46
2022/03/09 01:00:28;;;;;;;20.37;11.53;;;-0.90;72.30;;;;;;5048995;28;20500;-46
2022/03/09 01:02:55;;;;;;;22.60;13.13;;;-1.00;72.70;;;;;;5040568;28;20493;-47
2022/03/09 01:05:22;;;;;;;21.83;12.00;;;-1.00;72.50;;;;;;5042903;28;20486;-47
2022/03/09 01:07:48;;;;;;;19.80;12.17;;;-1.00;72.20;;;;;;5040197;28;20492;-46
2022/03/09 01:10:15;;;;;;;26.80;10.67;;;-1.10;72.60;;;;;;5040135;28;20488;-46
2022/03/09 01:12:42;;;;;;;17.73;11.43;;;-1.10;72.40;;;;;;5042248;28;20500;-47
2022/03/09 01:15:10;;;;;;;20.73;10.90;;;-1.30;73.00;;;;;;5046407;28;20480;-46
2022/03/09 01:17:38;;;;;;;27.90;13.90;;;-1.30;73.10;;;;;;5046646;28;20482;-46
2022/03/09 01:20:05;;;;;;;23.40;11.73;;;-1.30;73.10;;;;;;5041417;28;20489;-46
2022/03/09 01:22:32;;;;;;;21.20;11.93;;;-1.30;73.00;;;;;;5039581;28;20492;-47
2022/03/09 01:24:59;;;;;;;18.23;10.20;;;-1.50;72.70;;;;;;5042012;28;20489;-46
2022/03/09 01:27:26;;;;;;;18.67;10.43;;;-1.60;73.20;;;;;;5037326;28;20501;-51
2022/03/09 01:29:53;;;;;;;14.83;9.70;;;-1.70;73.70;;;;;;5040574;28;20480;-46
2022/03/09 01:32:21;;;;;;;21.53;11.10;;;-1.80;74.70;;;;;;5041222;28;20496;-46
2022/03/09 01:34:50;;;;;;;19.93;12.03;;;-1.90;75.10;;;;;;5043256;28;20498;-47
2022/03/09 01:37:16;;;;;;;18.97;11.40;;;-1.80;75.20;;;;;;5042733;28;20944;-46
2022/03/09 01:39:43;;;;;;;23.10;12.47;;;-1.80;74.80;;;;;;5040575;28;20472;-46
2022/03/09 01:42:10;;;;;;;20.47;11.80;;;-1.70;74.60;;;;;;5042060;28;20486;-45
2022/03/09 01:44:37;;;;;;;21.33;11.30;;;-1.70;73.80;;;;;;5040313;28;21059;-45
2022/03/09 01:47:05;;;;;;;36.43;13.30;;;-1.70;73.30;;;;;;5041369;28;20484;-46
2022/03/09 01:49:31;;;;;;;22.33;11.60;;;-1.80;73.20;;;;;;5039280;28;20922;-46
2022/03/09 01:52:01;;;;;;;17.70;10.97;;;-1.80;73.40;;;;;;5041381;28;21002;-46
2022/03/09 01:54:28;;;;;;;39.73;9.93;;;-1.80;73.60;;;;;;5039772;28;20508;-45
2022/03/09 01:56:56;;;;;;;17.87;11.30;;;-1.80;74.00;;;;;;5040981;28;20485;-45
2022/03/09 01:59:23;;;;;;;25.93;11.90;;;-1.80;74.20;;;;;;5041345;28;20485;-46
2022/03/09 02:01:50;;;;;;;31.70;12.27;;;-1.70;74.00;;;;;;5042005;28;20484;-46
2022/03/09 02:04:18;;;;;;;20.83;11.30;;;-1.70;73.80;;;;;;5040227;28;20487;-45
2022/03/09 02:06:45;;;;;;;16.97;10.77;;;-1.80;73.40;;;;;;5029752;28;20569;-45
2022/03/09 02:11:59;;;;;;;26.07;12.13;;;-1.80;73.60;;;;;;5028533;28;20487;-45
2022/03/09 02:14:31;;;;;;;23.20;10.10;;;-1.90;73.30;;;;;;5041504;28;20501;-45
2022/03/09 02:16:59;;;;;;;16.77;10.10;;;-1.90;73.60;;;;;;5041263;28;20489;-45
2022/03/09 02:19:28;;;;;;;25.73;12.57;;;-1.90;73.30;;;;;;5040536;28;20477;-46
2022/03/09 02:21:59;;;;;;;27.90;10.13;;;-1.90;73.00;;;;;;5039726;28;20492;-45
2022/03/09 02:24:28;;;;;;;23.57;12.60;;;-1.90;72.50;;;;;;5041153;28;20481;-46
2022/03/09 02:26:54;;;;;;;25.00;11.37;;;-1.90;72.60;;;;;;5037346;28;20482;-45
2022/03/09 02:29:21;;;;;;;34.83;12.43;;;-1.90;72.40;;;;;;5040424;28;20490;-45
2022/03/09 02:31:48;;;;;;;20.13;11.50;;;-1.80;72.40;;;;;;5041537;28;20494;-44
2022/03/09 02:34:15;;;;;;;22.93;10.53;;;-1.80;72.50;;;;;;5030459;28;20466;-45
2022/03/09 02:36:41;;;;;;;22.67;13.17;;;-1.90;72.80;;;;;;5040518;28;20480;-45
2022/03/09 02:39:08;;;;;;;22.23;10.10;;;-1.90;73.30;;;;;;5039570;28;21093;-45
2022/03/09 02:41:36;;;;;;;18.30;10.40;;;-1.90;73.40;;;;;;5040982;28;20477;-45
2022/03/09 02:44:04;;;;;;;21.10;10.60;;;-1.90;73.30;;;;;;5040454;28;20479;-45
2022/03/09 02:46:31;;;;;;;20.50;10.50;;;-1.90;73.70;;;;;;5043951;28;20493;-45
2022/03/09 02:48:58;;;;;;;16.50;11.77;;;-1.90;73.50;;;;;;5039588;28;20486;-46
2022/03/09 02:51:24;;;;;;;16.93;10.93;;;-1.90;73.10;;;;;;5041345;28;20475;-45
2022/03/09 02:53:51;;;;;;;18.10;10.23;;;-1.90;73.50;;;;;;5040654;28;20491;-45
2022/03/09 02:56:18;;;;;;;25.83;10.47;;;-1.90;74.00;;;;;;5039487;28;20493;-45
2022/03/09 02:58:46;;;;;;;21.07;11.70;;;-1.90;73.90;;;;;;5040588;28;20481;-45
2022/03/09 03:01:14;;;;;;;23.00;11.33;;;-1.90;73.50;;;;;;5041151;28;20822;-46
2022/03/09 03:03:41;;;;;;;17.63;11.93;;;-1.90;73.50;;;;;;5036117;28;20471;-45
2022/03/09 03:06:08;;;;;;;21.80;11.13;;;-1.90;73.40;;;;;;5031265;28;20490;-45
2022/03/09 03:08:35;;;;;;;21.40;9.93;;;-1.90;73.70;;;;;;5065579;28;20488;-45
2022/03/09 03:11:02;;;;;;;19.33;9.80;;;-2.00;73.80;;;;;;5045207;28;20498;-45
2022/03/09 03:13:29;;;;;;;17.00;10.43;;;-2.00;73.90;;;;;;5042858;28;20496;-45
2022/03/09 03:15:57;;;;;;;28.47;11.27;;;-2.00;73.50;;;;;;5034875;28;20494;-45
2022/03/09 03:18:24;;;;;;;46.70;12.27;;;-2.00;73.10;;;;;;5055555;28;20891;-47
2022/03/09 03:20:54;;;;;;;22.37;10.87;;;-2.10;73.10;;;;;;5040942;28;20479;-46
2022/03/09 03:23:21;;;;;;;12.67;9.30;;;-2.10;72.90;;;;;;5048166;28;20474;-46
2022/03/09 03:25:48;;;;;;;30.60;11.73;;;-2.10;72.80;;;;;;5044495;28;20494;-46
2022/03/09 03:28:15;;;;;;;15.80;10.47;;;-2.20;72.90;;;;;;5046936;28;20483;-46
2022/03/09 03:30:41;;;;;;;22.13;11.50;;;-2.20;72.60;;;;;;5042111;28;20664;-46
2022/03/09 03:33:09;;;;;;;21.13;12.03;;;-2.30;72.80;;;;;;5044601;28;21035;-46
2022/03/09 03:35:36;;;;;;;21.40;11.10;;;-2.50;74.00;;;;;;5043920;28;20483;-45
2022/03/09 03:38:04;;;;;;;12.87;8.53;;;-2.70;75.20;;;;;;5042753;28;20487;-46
2022/03/09 03:40:31;;;;;;;52.70;13.57;;;-2.80;76.20;;;;;;5048242;28;20985;-45
2022/03/09 03:42:57;;;;;;;20.43;11.87;;;-2.80;76.20;;;;;;5043837;28;20479;-47
2022/03/09 03:45:25;;;;;;;16.27;10.90;;;-2.90;75.90;;;;;;5043770;28;20479;-45
2022/03/09 03:47:52;;;;;;;55.97;12.80;;;-2.80;75.60;;;;;;5022829;28;20965;-46
2022/03/09 03:50:21;;;;;;;19.60;12.17;;;-2.70;75.30;;;;;;5047239;28;20471;-45
2022/03/09 03:52:47;;;;;;;19.63;11.80;;;-2.70;75.00;;;;;;5040962;28;21281;-45
2022/03/09 03:55:15;;;;;;;31.33;10.57;;;-2.60;75.20;;;;;;5043947;28;20496;-46
2022/03/09 03:57:41;;;;;;;22.60;10.37;;;-2.60;75.20;;;;;;5042828;28;20930;-45
2022/03/09 04:00:10;;;;;;;23.10;11.57;;;-2.60;74.60;;;;;;5042886;28;21001;-45
2022/03/09 04:02:36;;;;;;;23.43;11.10;;;-2.70;74.80;;;;;;5036058;28;21000;-45
2022/03/09 04:05:05;;;;;;;23.33;11.60;;;-2.80;74.90;;;;;;5054013;28;21006;-45
2022/03/09 04:07:33;;;;;;;18.60;10.40;;;-2.90;75.10;;;;;;5043086;28;20487;-45
2022/03/09 04:10:00;;;;;;;30.60;11.97;;;-2.90;75.60;;;;;;5041447;28;20992;-47
2022/03/09 04:12:27;;;;;;;27.90;11.90;;;-2.90;75.50;;;;;;5042996;28;20489;-45
2022/03/09 04:14:54;;;;;;;21.90;10.57;;;-2.80;75.30;;;;;;5042762;28;20484;-45
2022/03/09 04:17:21;;;;;;;22.40;9.63;;;-2.80;74.60;;;;;;5044125;28;20480;-45
2022/03/09 04:19:48;;;;;;;10.80;9.60;;;-2.80;74.10;;;;;;5033942;28;20479;-45
2022/03/09 04:22:15;;;;;;;21.70;10.40;;;-2.80;74.00;;;;;;5052068;28;20502;-46
2022/03/09 04:24:43;;;;;;;21.10;9.43;;;-2.80;74.60;;;;;;5040870;28;20491;-45
2022/03/09 04:27:10;;;;;;;19.07;10.73;;;-2.80;74.50;;;;;;5035774;28;20495;-45
2022/03/09 04:29:37;;;;;;;22.63;11.17;;;-2.90;74.40;;;;;;5045392;28;20548;-45
2022/03/09 04:32:04;;;;;;;24.30;10.37;;;-2.90;75.10;;;;;;5043334;28;20494;-44
2022/03/09 04:34:31;;;;;;;18.20;10.70;;;-2.90;75.30;;;;;;5042017;28;20530;-44
2022/03/09 04:36:58;;;;;;;21.87;10.77;;;-2.90;75.30;;;;;;5041724;28;20520;-45
2022/03/09 04:39:25;;;;;;;21.50;10.23;;;-2.80;75.00;;;;;;5037900;28;20507;-45
2022/03/09 04:41:53;;;;;;;20.13;11.03;;;-2.90;74.30;;;;;;5044899;28;20980;-45
2022/03/09 04:44:19;;;;;;;22.80;10.60;;;-3.00;74.60;;;;;;5042563;28;20491;-45
2022/03/09 04:46:46;;;;;;;26.50;11.93;;;-3.20;76.20;;;;;;5041748;28;20479;-45
2022/03/09 04:49:13;;;;;;;17.43;9.50;;;-3.30;76.80;;;;;;5042052;28;20488;-45
2022/03/09 04:51:40;;;;;;;16.63;8.73;;;-3.20;76.60;;;;;;5041102;28;20484;-44
2022/03/09 04:54:07;;;;;;;21.37;9.30;;;-3.10;76.10;;;;;;5040939;28;20514;-45
2022/03/09 04:56:33;;;;;;;19.30;10.30;;;-3.10;75.40;;;;;;5033111;28;20475;-44
2022/03/09 04:59:01;;;;;;;21.20;11.30;;;-3.20;75.20;;;;;;5053485;28;20498;-44
2022/03/09 05:01:28;;;;;;;24.23;11.07;;;-3.20;75.10;;;;;;5040262;28;20491;-45
2022/03/09 05:03:55;;;;;;;21.47;10.33;;;-3.20;75.20;;;;;;5042179;28;20487;-44
2022/03/09 05:06:22;;;;;;;23.17;10.70;;;-3.10;75.20;;;;;;5039846;28;20486;-45
2022/03/09 05:08:48;;;;;;;25.50;11.70;;;-3.00;75.00;;;;;;5044830;28;20504;-45
2022/03/09 05:11:15;;;;;;;18.13;10.37;;;-3.00;74.80;;;;;;5040982;28;20486;-45
2022/03/09 05:13:42;;;;;;;21.40;10.30;;;-2.90;74.50;;;;;;5040732;28;20479;-45
2022/03/09 05:16:10;;;;;;;25.83;9.47;;;-2.90;74.20;;;;;;5048130;28;20491;-45
2022/03/09 05:18:40;;;;;;;17.10;9.60;;;-2.90;73.80;;;;;;5041495;28;20489;-45
2022/03/09 05:21:07;;;;;;;21.70;10.27;;;-3.00;74.00;;;;;;5039773;28;20515;-45
2022/03/09 05:23:34;;;;;;;19.50;11.57;;;-3.00;74.10;;;;;;5040834;28;20858;-45
2022/03/09 05:26:01;;;;;;;17.50;10.63;;;-3.00;74.00;;;;;;5043570;28;20491;-45
2022/03/09 05:28:28;;;;;;;14.40;9.60;;;-3.00;73.90;;;;;;5042149;28;20488;-45
2022/03/09 05:30:54;;;;;;;24.93;10.03;;;-2.90;73.40;;;;;;5037962;28;20569;-45
2022/03/09 05:33:23;;;;;;;18.77;10.60;;;-3.00;73.70;;;;;;5043749;28;20484;-45
2022/03/09 05:35:49;;;;;;;28.37;10.73;;;-3.00;74.10;;;;;;5036353;28;20502;-45
2022/03/09 05:38:16;;;;;;;29.57;11.50;;;-3.00;73.90;;;;;;5038900;28;20974;-46
2022/03/09 05:40:43;;;;;;;15.30;8.83;;;-3.00;73.60;;;;;;5036798;28;20487;-45
2022/03/09 05:43:10;;;;;;;20.87;11.60;;;-2.90;73.30;;;;;;5039315;28;22231;-45
2022/03/09 05:45:37;;;;;;;23.30;10.17;;;-2.90;73.10;;;;;;5038793;28;20516;-45
2022/03/09 05:48:04;;;;;;;28.20;12.80;;;-3.00;72.90;;;;;;5039040;28;20566;-45
2022/03/09 05:50:32;;;;;;;14.43;10.03;;;-3.20;73.20;;;;;;5039229;28;20495;-45
2022/03/09 05:52:59;;;;;;;17.53;10.87;;;-3.40;74.40;;;;;;5039819;28;20510;-45
2022/03/09 05:55:25;;;;;;;28.90;11.37;;;-3.60;75.10;;;;;;5040975;28;20494;-45
2022/03/09 05:57:52;;;;;;;25.77;11.87;;;-3.60;76.00;;;;;;5040722;28;20513;-45
2022/03/09 06:00:19;;;;;;;27.00;9.07;;;-3.60;75.80;;;;;;5041377;28;20494;-46
2022/03/09 06:02:46;;;;;;;16.47;10.50;;;-3.50;75.40;;;;;;5040902;28;20479;-46
2022/03/09 06:05:13;;;;;;;25.57;9.77;;;-3.40;75.30;;;;;;5028398;28;20478;-43
2022/03/09 06:07:41;;;;;;;23.23;10.20;;;-3.40;75.60;;;;;;5041809;28;20470;-43
2022/03/09 06:10:09;;;;;;;17.93;9.00;;;-3.30;75.50;;;;;;5035085;28;20497;-44
2022/03/09 06:12:36;;;;;;;20.77;9.97;;;;;;;;;;5047770;28;20483;-44
2022/03/09 06:15:03;;;;;;;27.40;10.37;;;-3.10;75.40;;;;;;5039702;28;20479;-44
2022/03/09 06:17:30;;;;;;;15.33;9.70;;;-3.00;75.10;;;;;;5040902;28;20501;-44
2022/03/09 06:19:57;;;;;;;22.40;9.83;;;;;;;;;;5040747;28;20502;-45
2022/03/09 06:22:24;;;;;;;21.50;11.67;;;-2.90;74.50;;;;;;5047356;28;20486;-45
2022/03/09 06:24:52;;;;;;;20.40;10.97;;;-2.90;74.30;;;;;;5038402;28;20557;-45
2022/03/09 06:27:19;;;;;;;22.73;12.07;;;-2.80;73.90;;;;;;5041053;28;20486;-45
2022/03/09 06:29:45;;;;;;;18.50;10.77;;;-2.80;73.60;;;;;;5040480;28;20484;-45
2022/03/09 06:32:12;;;;;;;26.93;11.67;;;-2.80;73.30;;;;;;5040693;28;20490;-45
2022/03/09 06:34:39;;;;;;;21.43;10.53;;;;;;;;;;5039350;28;20487;-44
2022/03/09 06:37:06;;;;;;;22.23;11.53;;;-2.70;73.70;;;;;;5038342;28;20513;-44
2022/03/09 06:39:33;;;;;;;17.20;10.80;;;-2.60;74.00;;;;;;5038560;28;20478;-45
2022/03/09 06:42:01;;;;;;;23.40;12.23;;;-2.60;74.00;;;;;;5040292;28;20970;-45
2022/03/09 06:44:28;;;;;;;26.10;11.77;;;-2.50;74.20;;;;;;5043155;28;20491;-45
2022/03/09 06:46:56;;;;;;;20.50;11.87;;;-2.50;74.40;;;;;;5043648;28;21004;-45
2022/03/09 06:49:23;;;;;;;19.43;11.50;;;-2.50;74.40;;;;;;5041020;28;20483;-45
2022/03/09 06:51:50;;;;;;;22.70;12.40;;;-2.50;73.90;;;;;;5043578;28;20482;-44
2022/03/09 06:54:17;;;;;;;21.13;11.60;;;-2.40;74.00;;;;;;5042636;28;20471;-44
2022/03/09 06:56:43;;;;;;;16.40;10.70;;;-2.50;73.90;;;;;;5045242;28;20472;-44
2022/03/09 06:59:11;;;;;;;25.23;10.97;;;-2.50;74.20;;;;;;5043471;28;20511;-45
2022/03/09 07:01:39;;;;;;;28.13;12.27;;;-2.40;74.80;;;;;;5044373;28;20491;-44
2022/03/09 07:04:06;;;;;;;32.40;13.30;;;-1.40;76.80;;;;;;5040590;28;20480;-44
2022/03/09 07:06:33;;;;;;;33.67;15.80;;;-0.40;78.40;;;;;;5045092;28;20479;-44
2022/03/09 07:09:00;;;;;;;23.33;13.10;;;0.70;77.10;;;;;;5043311;28;20488;-45
2022/03/09 07:11:26;;;;;;;22.77;12.63;;;2.10;71.80;;;;;;5044158;28;20487;-45
2022/03/09 07:13:53;;;;;;;27.30;14.70;;;3.00;69.70;;;;;;5043840;28;20476;-46
2022/03/09 07:16:21;;;;;;;20.57;13.10;;;3.80;68.70;;;;;;5044910;28;20478;-46
2022/03/09 07:18:48;;;;;;;32.03;14.10;;;4.90;67.20;;;;;;5035856;28;20498;-45
2022/03/09 07:21:15;;;;;;;24.57;14.97;;;5.80;66.90;;;;;;5052681;28;20475;-46
2022/03/09 07:23:42;;;;;;;28.17;16.67;;;6.20;66.20;;;;;;5043512;28;20489;-45
2022/03/09 07:26:09;;;;;;;26.70;16.60;;;7.90;63.40;;;;;;5044769;28;20874;-46
2022/03/09 07:28:36;;;;;;;26.67;15.97;;;8.70;63.10;;;;;;5044095;28;20999;-46
2022/03/09 07:31:03;;;;;;;25.30;16.87;;;9.60;62.60;;;;;;5040546;28;20577;-46
2022/03/09 07:33:31;;;;;;;17.93;13.83;;;10.60;59.50;;;;;;5036779;28;20880;-46
2022/03/09 07:36:00;;;;;;;21.80;15.40;;;10.60;59.90;;;;;;5043313;28;20541;-46
2022/03/09 07:38:26;;;;;;;25.33;15.23;;;11.40;59.90;;;;;;5039624;28;20482;-47
2022/03/09 07:40:53;;;;;;;23.30;14.50;;;12.70;57.70;;;;;;5064543;28;21021;-46
2022/03/09 07:43:21;;;;;;;22.43;15.43;;;12.80;57.60;;;;;;5042493;28;20475;-46
2022/03/09 07:45:48;;;;;;;24.97;15.17;;;13.30;57.30;;;;;;5041299;28;20918;-46
2022/03/09 07:48:15;;;;;;;21.93;13.47;;;14.40;55.50;;;;;;5044251;28;20533;-47
2022/03/09 07:50:43;;;;;;;20.13;14.70;;;14.40;56.10;;;;;;5042125;28;20492;-46
2022/03/09 07:53:10;;;;;;;23.07;14.07;;;15.30;54.20;;;;;;5037170;28;20499;-46
2022/03/09 07:55:37;;;;;;;23.23;13.23;;;15.60;53.50;;;;;;5022231;28;20486;-46
2022/03/09 07:58:03;;;;;;;19.10;14.43;;;15.60;54.00;;;;;;5031746;28;20488;-46
2022/03/09 08:00:30;;;;;;;20.70;13.70;;;15.80;54.20;;;;;;5043504;28;20484;-46
2022/03/09 08:02:57;;;;;;;17.83;13.80;;;15.90;53.00;;;;;;5046608;28;20853;-47
2022/03/09 08:05:24;;;;;;;19.70;13.43;;;15.80;53.60;;;;;;5048660;28;20520;-46
2022/03/09 08:07:52;;;;;;;20.43;13.63;;;15.80;54.00;;;;;;5047885;28;20467;-46
2022/03/09 08:10:19;;;;;;;27.77;13.77;;;15.70;53.10;;;;;;5042676;28;20831;-46
2022/03/09 08:12:46;;;;;;;20.00;12.73;;;15.70;53.70;;;;;;5048672;28;20477;-45
2022/03/09 08:15:13;;;;;;;19.83;13.10;;;15.60;53.00;;;;;;5065305;28;20517;-45
2022/03/09 08:17:39;;;;;;;32.33;15.53;;;15.10;52.40;;;;;;5046200;28;20489;-46
2022/03/09 08:20:07;;;;;;;18.80;12.97;;;15.10;53.00;;;;;;5042589;28;20541;-45
2022/03/09 08:22:34;;;;;;;19.70;12.93;;;14.90;53.30;;;;;;5048508;28;20490;-45
2022/03/09 08:25:02;;;;;;;22.47;12.80;;;14.40;53.30;;;;;;5046946;28;20494;-45
2022/03/09 08:27:29;;;;;;;18.20;12.57;;;14.40;54.10;;;;;;5046856;28;20487;-46
2022/03/09 08:29:56;;;;;;;21.13;12.03;;;14.10;53.90;;;;;;5044635;28;20485;-46
2022/03/09 08:32:22;;;;;;;14.90;11.90;;;13.70;53.10;;;;;;5046385;28;20476;-46
2022/03/09 08:34:49;;;;;;;19.57;13.10;;;13.50;53.10;;;;;;5045635;28;20485;-45
2022/03/09 08:37:16;;;;;;;21.17;12.70;;;13.40;53.60;;;;;;5045337;28;21238;-46
2022/03/09 08:39:45;;;;;;;18.50;12.50;;;13.20;53.70;;;;;;5042897;28;20488;-46
2022/03/09 08:42:13;;;;;;;19.87;13.43;;;13.00;53.80;;;;;;5048066;28;21584;-46
2022/03/09 08:44:40;;;;;;;14.20;11.00;;;12.90;53.80;;;;;;5054752;28;20552;-45
2022/03/09 08:47:07;;;;;;;32.80;13.70;;;12.70;54.30;;;;;;5057894;28;20484;-46
2022/03/09 08:49:36;;;;;;;18.67;11.43;;;12.60;54.10;;;;;;5043377;28;20489;-46
2022/03/09 08:52:03;;;;;;;22.13;13.47;;;12.50;54.00;;;;;;5047340;28;20575;-46
2022/03/09 08:54:30;;;;;;;29.63;13.77;;;12.30;54.20;;;;;;5045565;28;20491;-45
2022/03/09 08:56:57;;;;;;;21.77;12.00;;;12.30;55.20;;;;;;5047544;28;21049;-46
2022/03/09 08:59:25;;;;;;;25.37;13.57;;;12.20;54.10;;;;;;5042512;28;20514;-46
2022/03/09 09:01:53;;;;;;;21.40;12.30;;;12.20;55.70;;;;;;5046348;28;20479;-46
2022/03/09 09:04:20;;;;;;;18.30;12.70;;;12.20;55.10;;;;;;5045784;28;20835;-46
2022/03/09 09:06:47;;;;;;;22.90;12.60;;;12.20;55.10;;;;;;5036002;28;20494;-46
2022/03/09 09:09:14;;;;;;;26.20;13.10;;;12.30;55.20;;;;;;5035201;28;20490;-46
2022/03/09 09:11:41;;;;;;;21.37;13.03;;;12.40;56.40;;;;;;5042878;28;20824;-46
2022/03/09 09:14:08;;;;;;;23.33;12.93;;;12.40;55.60;;;;;;5044244;28;20720;-46
2022/03/09 09:16:38;;;;;;;27.30;14.23;;;12.60;55.80;;;;;;5045169;28;20482;-46
2022/03/09 09:19:05;;;;;;;28.07;14.30;;;12.70;55.10;;;;;;5044419;28;20481;-46
2022/03/09 09:21:32;;;;;;;23.00;13.90;;;12.70;55.40;;;;;;5046640;28;20483;-46
2022/03/09 09:23:59;;;;;;;37.83;15.80;;;13.00;55.20;;;;;;5039526;28;20577;-46
2022/03/09 09:26:26;;;;;;;21.70;14.77;;;12.80;52.10;;;;;;5045424;28;20490;-46
2022/03/09 09:28:52;;;;;;;22.30;15.43;;;12.80;52.90;;;;;;5043422;28;20647;-46
2022/03/09 09:31:19;;;;;;;29.50;15.40;;;12.70;53.60;;;;;;5046045;28;20471;-46
2022/03/09 09:33:47;;;;;;;23.13;14.20;;;12.80;55.70;;;;;;5045231;28;21075;-46
2022/03/09 09:36:14;;;;;;;24.00;16.27;;;12.90;52.50;;;;;;5043457;28;20510;-46
2022/03/09 09:38:41;;;;;;;40.93;17.70;;;12.70;53.00;;;;;;5043457;28;20480;-46
2022/03/09 09:41:10;;;;;;;24.03;15.60;;;12.80;53.90;;;;;;5042982;28;21038;-46
2022/03/09 09:43:39;;;;;;;32.20;16.87;;;;;;;;;;5043107;28;21001;-46
2022/03/09 09:46:06;;;;;;;25.47;17.77;;;12.60;51.20;;;;;;5046069;28;20755;-47
2022/03/09 09:48:33;;;;;;;28.70;17.30;;;12.60;53.10;;;;;;5043985;28;20994;-47
2022/03/09 09:51:01;;;;;;;27.57;17.90;;;12.70;53.10;;;;;;5037523;28;20546;-47
2022/03/09 09:53:30;;;;;;;29.80;18.57;;;12.70;52.60;;;;;;5023283;28;20965;-46
2022/03/09 09:55:59;;;;;;;30.33;19.23;;;12.90;52.60;;;;;;5037815;28;20473;-46
2022/03/09 09:58:28;;;;;;;23.67;11.73;;;13.10;52.00;;;;;;5037238;28;20490;-47
2022/03/09 10:00:55;;;;;;;25.23;17.00;;;13.30;53.50;;;;;;5061717;28;20595;-47
2022/03/09 10:03:22;;;;;;;27.33;17.97;;;13.50;53.10;;;;;;5040255;28;20484;-48
2022/03/09 10:05:50;;;;;;;38.20;19.20;;;13.90;54.10;;;;;;5038806;28;21092;-47
2022/03/09 10:08:18;;;;;;;28.30;17.93;;;14.20;53.30;;;;;;5040993;28;20574;-47
2022/03/09 10:10:54;;;;;;;30.37;18.03;;;14.40;52.20;;;;;;5037760;28;20485;-47
2022/03/09 10:13:23;;;;;;;32.93;19.13;;;14.60;53.20;;;;;;5040542;28;20525;-47
2022/03/09 10:16:06;;;;;;;42.83;20.37;;;14.90;53.90;;;;;;5041359;28;20624;-47
2022/03/09 10:18:33;;;;;;;37.20;18.50;;;15.20;52.30;;;;;;5028560;28;21146;-47
2022/03/09 10:21:10;;;;;;;27.60;17.70;;;15.40;52.70;;;;;;5027297;28;20478;-47
2022/03/09 10:23:52;;;;;;;32.20;18.20;;;15.50;53.30;;;;;;5029791;28;20556;-47
2022/03/09 10:26:19;;;;;;;28.03;17.73;;;15.50;51.70;;;;;;5040347;28;20479;-48
2022/03/09 10:29:02;;;;;;;32.10;18.63;;;15.70;51.60;;;;;;5043857;28;20571;-47
2022/03/09 10:31:34;;;;;;;31.40;19.00;;;15.70;51.00;;;;;;5038821;28;20478;-47
2022/03/09 10:34:08;;;;;;;36.73;17.70;;;15.60;50.90;;;;;;5042848;28;20482;-48
2022/03/09 10:36:35;;;;;;;31.67;20.37;;;15.70;52.10;;;;;;5025975;28;20493;-51
2022/03/09 10:39:17;;;;;;;38.60;18.90;;;15.80;53.10;;;;;;5037389;28;20487;-50
2022/03/09 10:41:43;;;;;;;29.80;18.50;;;15.90;52.30;;;;;;5035029;28;20982;-50
2022/03/09 10:44:10;;;;;;;35.17;21.10;;;16.00;52.10;;;;;;5039426;28;20479;-49
2022/03/09 10:46:46;;;;;;;34.53;21.73;;;16.10;52.20;;;;;;5040687;28;20888;-50
2022/03/09 10:49:14;;;;;;;27.30;18.07;;;16.20;52.30;;;;;;5037734;28;20502;-53
2022/03/09 10:51:43;;;;;;;33.00;20.13;;;16.30;51.90;;;;;;5039641;28;20483;-50
2022/03/09 10:54:11;;;;;;;43.90;21.50;;;16.40;51.90;;;;;;5038373;28;20506;-50
2022/03/09 10:56:40;;;;;;;33.70;21.47;;;16.50;50.90;;;;;;5037738;28;20933;-50
2022/03/09 10:59:12;;;;;;;36.20;21.23;;;16.60;51.70;;;;;;5042319;28;20985;-50
2022/03/09 11:01:39;;;;;;;32.43;21.60;;;16.80;52.70;;;;;;5038649;28;21072;-50
2022/03/09 11:04:13;;;;;;;34.27;20.00;;;16.90;52.40;;;;;;5036175;28;20488;-52
2022/03/09 11:06:46;;;;;;;37.60;22.83;;;17.10;52.10;;;;;;5040125;28;20479;-49
2022/03/09 11:09:14;;;;;;;60.80;27.73;;;17.10;48.00;;;;;;5038068;28;20482;-50
2022/03/09 11:11:43;;;;;;;32.07;20.80;;;16.60;46.30;;;;;;5037270;28;20927;-51
2022/03/09 11:14:12;;;;;;;36.73;20.17;;;16.40;51.90;;;;;;5037649;28;20965;-50
2022/03/09 11:16:39;;;;;;;39.17;23.53;;;16.40;52.40;;;;;;5028710;28;20479;-49
2022/03/09 11:19:07;;;;;;;34.50;21.20;;;16.60;51.30;;;;;;5030670;28;20479;-49
2022/03/09 11:21:36;;;;;;;34.50;22.20;;;16.70;49.80;;;;;;5023487;28;20687;-48
2022/03/09 11:24:06;;;;;;;33.00;21.00;;;16.70;49.30;;;;;;5037217;28;20488;-48
2022/03/09 11:26:36;;;;;;;34.93;22.80;;;16.50;48.50;;;;;;5043540;28;20467;-48
2022/03/09 11:29:07;;;;;;;34.07;21.93;;;16.70;51.40;;;;;;5032181;28;20483;-49
2022/03/09 11:31:45;;;;;;;34.13;22.10;;;16.60;49.90;;;;;;5055294;28;20469;-49
2022/03/09 11:34:35;;;;;;;38.80;21.30;;;16.50;49.60;;;;;;5051457;28;20528;-49
2022/03/09 11:37:03;;;;;;;37.97;20.90;;;;;;;;;;5047022;28;20487;-48
2022/03/09 11:39:30;;;;;;;38.97;22.47;;;17.00;51.10;;;;;;5045558;28;20478;-48
2022/03/09 11:42:31;;;;;;;40.30;23.90;;;17.10;50.30;;;;;;5048109;28;20908;-48
2022/03/09 11:45:33;;;;;;;37.83;22.90;;;17.20;49.30;;;;;;5043993;28;20478;-48
2022/03/09 11:48:05;;;;;;;32.57;21.93;;;17.10;48.90;;;;;;5047037;28;20482;-48
2022/03/09 11:50:34;;;;;;;37.23;22.67;;;16.80;48.70;;;;;;5044749;28;20984;-48
2022/03/09 11:53:03;;;;;;;43.00;22.73;;;16.70;49.10;;;;;;5046024;28;20488;-48
2022/03/09 11:55:30;;;;;;;36.00;22.87;;;16.60;50.40;;;;;;5045530;28;20478;-48
2022/03/09 11:58:09;;;;;;;37.30;22.73;;;17.00;53.10;;;;;;5046966;28;20932;-48
2022/03/09 12:00:38;;;;;;;35.43;20.67;;;17.30;52.30;;;;;;5030936;28;20565;-48
2022/03/09 12:03:05;;;;;;;34.40;22.87;;;17.60;52.60;;;;;;5045791;28;20826;-48
2022/03/09 12:05:37;;;;;;;31.90;21.93;;;18.00;53.30;;;;;;5038544;28;20475;-48
2022/03/09 12:08:05;;;;;;;43.73;23.83;;;18.50;51.80;;;;;;5048425;28;20482;-48
2022/03/09 12:10:43;;;;;;;38.17;22.03;;;18.90;52.10;;;;;;5044097;28;21050;-48
2022/03/09 12:13:22;;;;;;;37.53;23.53;;;19.00;50.00;;;;;;5045654;28;20482;-49
2022/03/09 12:16:16;;;;;;;40.37;22.90;;;18.90;50.90;;;;;;5046273;28;20479;-48
2022/03/09 12:18:45;;;;;;;40.50;24.30;;;18.70;47.90;;;;;;5035142;28;20475;-48
2022/03/09 12:21:13;;;;;;;37.90;23.93;;;18.20;47.60;;;;;;5045775;28;20975;-48
2022/03/09 12:24:28;;;;;;;39.33;23.67;;;17.80;47.70;;;;;;5067278;28;20491;-49
2022/03/09 12:26:56;;;;;;;34.50;22.67;;;17.50;48.70;;;;;;5048171;28;20514;-48
2022/03/09 12:29:39;;;;;;;33.57;22.30;;;17.00;50.90;;;;;;5045227;28;20475;-48
2022/03/09 12:32:10;;;;;;;41.00;21.37;;;16.60;50.40;;;;;;5043251;28;20565;-49
2022/03/09 12:34:39;;;;;;;35.33;20.77;;;16.40;51.50;;;;;;5035949;28;21040;-48
2022/03/09 12:37:09;;;;;;;35.00;21.27;;;16.30;52.60;;;;;;5034763;28;20968;-48
2022/03/09 12:39:36;;;;;;;38.27;21.87;;;16.50;54.10;;;;;;5044037;28;20486;-48